Time;durP1;ratioP1;P1;durP2;ratioP2;P2;SDS_P1;SDS_P2;PMS_P1;PMS_P2;Temp;Humidity;BMP_temperature;BMP_pressure;BME280_temperature;BME280_humidity;BME280_pressure;Samples;Min_cycle;Max_cycle;Signal;HPM_P1;HPM_P2
2023/04/28 03:01:15;;;;;;;18.85;10.18;;;6.90;99.90;;;;;;5609365;23;20397;-79
2023/04/28 03:03:41;;;;;;;17.45;10.60;;;6.90;99.90;;;;;;4977353;28;20038;-79
2023/04/28 03:06:06;;;;;;;18.05;9.70;;;6.90;99.90;;;;;;4976559;28;20039;-79
2023/04/28 03:08:32;;;;;;;18.05;9.95;;;6.90;99.90;;;;;;4977457;28;20138;-81
2023/04/28 03:10:58;;;;;;;17.00;10.55;;;7.00;99.90;;;;;;4988749;28;20500;-81
2023/04/28 03:13:24;;;;;;;17.42;10.32;;;7.00;99.90;;;;;;4975583;28;20046;-79
2023/04/28 03:15:51;;;;;;;16.63;11.27;;;7.00;99.90;;;;;;4975408;28;20050;-79
2023/04/28 03:18:17;;;;;;;20.33;11.07;;;6.90;99.90;;;;;;4958093;28;20438;-79
2023/04/28 03:20:43;;;;;;;17.90;10.15;;;6.90;99.90;;;;;;4975309;28;20051;-77
2023/04/28 03:23:09;;;;;;;20.15;10.43;;;6.90;99.90;;;;;;4975389;28;20090;-78
2023/04/28 03:25:34;;;;;;;17.27;10.05;;;6.90;99.90;;;;;;4975820;28;20042;-79
2023/04/28 03:28:00;;;;;;;20.27;10.68;;;6.90;99.90;;;;;;4975401;28;20043;-80
2023/04/28 03:30:27;;;;;;;18.65;11.18;;;6.90;99.90;;;;;;4957753;28;20042;-78
2023/04/28 03:32:52;;;;;;;19.95;10.48;;;6.90;99.90;;;;;;4957717;28;20050;-79
2023/04/28 03:35:18;;;;;;;21.38;10.98;;;6.90;99.90;;;;;;4957514;28;20398;-79
2023/04/28 03:37:44;;;;;;;18.77;10.73;;;6.90;99.90;;;;;;4957799;28;20086;-80
2023/04/28 03:40:10;;;;;;;20.75;11.93;;;6.90;99.90;;;;;;4974856;28;20039;-80
2023/04/28 03:42:36;;;;;;;18.45;10.23;;;6.80;99.90;;;;;;4957748;28;20050;-79
2023/04/28 03:45:02;;;;;;;20.60;10.88;;;6.90;99.90;;;;;;4958329;28;20038;-79
2023/04/28 03:47:27;;;;;;;18.77;11.00;;;6.90;99.90;;;;;;4957386;28;20109;-80
2023/04/28 03:49:53;;;;;;;20.23;11.15;;;6.80;99.90;;;;;;4941580;28;20082;-79
2023/04/28 03:52:19;;;;;;;19.73;10.50;;;6.80;99.90;;;;;;4957172;28;20034;-82
2023/04/28 03:54:45;;;;;;;19.40;10.07;;;6.80;99.90;;;;;;4974894;28;20065;-79
2023/04/28 03:57:11;;;;;;;24.48;11.23;;;6.80;99.90;;;;;;4957677;28;20047;-79
2023/04/28 03:59:37;;;;;;;20.73;10.80;;;6.80;99.90;;;;;;4957171;28;20045;-79
2023/04/28 04:02:03;;;;;;;22.35;11.40;;;6.80;99.90;;;;;;4957668;28;20034;-79
2023/04/28 04:04:29;;;;;;;20.13;10.77;;;6.80;99.90;;;;;;4957171;28;20497;-79
2023/04/28 04:06:54;;;;;;;20.73;11.13;;;6.80;99.90;;;;;;4957127;28;20098;-78
2023/04/28 04:09:20;;;;;;;20.15;11.25;;;6.80;99.90;;;;;;4974333;28;20035;-79
2023/04/28 04:11:46;;;;;;;19.00;11.38;;;6.80;99.90;;;;;;4956839;28;20038;-79
2023/04/28 04:14:11;;;;;;;19.77;11.25;;;6.80;99.90;;;;;;4956864;28;20130;-79
2023/04/28 04:16:40;;;;;;;18.48;10.73;;;6.80;99.90;;;;;;4974548;28;20043;-79
2023/04/28 04:19:06;;;;;;;19.15;10.57;;;6.80;99.90;;;;;;4957153;28;20042;-80
2023/04/28 04:21:31;;;;;;;22.20;12.15;;;6.80;99.90;;;;;;4974180;28;20093;-79
2023/04/28 04:23:58;;;;;;;22.10;11.80;;;6.80;99.90;;;;;;4956692;28;20054;-79
2023/04/28 04:26:24;;;;;;;21.48;10.68;;;6.80;99.90;;;;;;4957451;28;20047;-80
2023/04/28 04:28:50;;;;;;;22.77;10.95;;;6.80;99.90;;;;;;4974959;28;20049;-80
2023/04/28 04:31:17;;;;;;;20.42;11.30;;;6.80;99.90;;;;;;4984436;28;20031;-75
2023/04/28 04:33:42;;;;;;;23.58;11.45;;;6.80;99.90;;;;;;4968506;28;20050;-77
2023/04/28 04:36:08;;;;;;;17.65;11.30;;;6.80;99.90;;;;;;4958071;28;20046;-80
2023/04/28 04:38:33;;;;;;;18.92;11.15;;;6.80;99.90;;;;;;4941594;28;20046;-80
2023/04/28 04:40:59;;;;;;;19.98;10.80;;;6.80;99.90;;;;;;4957199;28;20087;-79
2023/04/28 04:43:25;;;;;;;20.08;11.65;;;6.80;99.90;;;;;;4956967;28;20049;-79
2023/04/28 04:45:50;;;;;;;20.60;11.02;;;6.80;99.90;;;;;;4957183;28;20043;-80
2023/04/28 04:48:16;;;;;;;18.80;10.85;;;6.80;99.90;;;;;;4956528;28;20501;-80
2023/04/28 04:50:43;;;;;;;20.27;11.70;;;6.80;99.90;;;;;;4956938;28;20070;-81
2023/04/28 04:53:09;;;;;;;27.23;12.73;;;6.90;99.90;;;;;;4957013;28;20441;-80
2023/04/28 04:55:34;;;;;;;23.08;11.43;;;6.90;99.90;;;;;;4974164;28;20042;-78
2023/04/28 04:58:00;;;;;;;21.40;11.48;;;6.90;99.90;;;;;;4940761;28;20043;-78
2023/04/28 05:00:26;;;;;;;23.85;11.60;;;6.90;99.90;;;;;;4956287;28;20071;-81
2023/04/28 05:02:51;;;;;;;19.15;11.05;;;7.00;99.90;;;;;;4956539;28;20043;-78
2023/04/28 05:05:17;;;;;;;20.48;11.63;;;7.00;99.90;;;;;;4956299;28;20383;-80
2023/04/28 05:07:43;;;;;;;20.23;11.23;;;7.10;99.90;;;;;;4974010;28;20031;-85
2023/04/28 05:10:10;;;;;;;23.77;11.80;;;7.10;99.90;;;;;;4956633;28;20521;-79
2023/04/28 05:12:37;;;;;;;24.25;12.48;;;7.10;99.90;;;;;;4956450;28;20046;-81
2023/04/28 05:15:06;;;;;;;22.00;11.43;;;7.10;99.90;;;;;;4940741;28;20097;-81
2023/04/28 05:17:33;;;;;;;17.98;10.55;;;7.20;99.90;;;;;;4972717;28;20514;-77
2023/04/28 05:19:58;;;;;;;19.15;10.48;;;7.20;99.90;;;;;;4974287;28;20493;-80
2023/04/28 05:22:25;;;;;;;22.17;11.52;;;7.20;99.90;;;;;;4973843;28;20034;-77
2023/04/28 05:24:51;;;;;;;18.48;10.73;;;7.20;99.90;;;;;;4941250;28;20038;-79
2023/04/28 05:27:18;;;;;;;21.52;11.65;;;7.20;99.90;;;;;;4960342;28;20182;-81
2023/04/28 05:29:43;;;;;;;22.55;12.10;;;7.20;99.90;;;;;;4977431;28;20066;-80
2023/04/28 05:32:09;;;;;;;27.67;13.25;;;7.30;99.90;;;;;;4944092;28;20051;-79
2023/04/28 05:34:35;;;;;;;20.20;10.77;;;7.30;99.90;;;;;;4960342;28;20047;-81
2023/04/28 05:37:00;;;;;;;26.13;11.35;;;7.30;99.90;;;;;;4959736;28;20053;-78
2023/04/28 05:39:26;;;;;;;22.13;11.52;;;7.30;99.90;;;;;;4959726;28;20043;-80
2023/04/28 05:41:52;;;;;;;22.70;11.57;;;7.30;99.90;;;;;;4960093;28;20047;-79
2023/04/28 05:44:17;;;;;;;25.35;12.23;;;7.30;99.90;;;;;;4977017;28;20047;-79
2023/04/28 05:46:43;;;;;;;19.60;10.95;;;7.40;99.90;;;;;;4944094;28;20053;-80
2023/04/28 05:49:09;;;;;;;20.00;10.80;;;7.40;99.90;;;;;;4977230;28;20043;-80
2023/04/28 05:51:35;;;;;;;19.10;10.88;;;7.40;99.90;;;;;;4960404;28;20498;-80
2023/04/28 05:54:01;;;;;;;22.40;11.35;;;7.40;99.90;;;;;;4959555;28;20081;-81
2023/04/28 05:56:26;;;;;;;21.95;10.93;;;7.50;99.90;;;;;;4976857;28;20046;-83
2023/04/28 05:58:52;;;;;;;19.35;10.93;;;7.50;99.90;;;;;;4959988;28;20062;-80
2023/04/28 06:01:18;;;;;;;23.65;11.55;;;7.50;99.90;;;;;;4976812;28;20088;-80
2023/04/28 06:03:44;;;;;;;19.73;11.32;;;7.60;99.90;;;;;;4959589;28;20090;-81
2023/04/28 06:06:10;;;;;;;23.50;10.77;;;7.60;99.90;;;;;;4959418;28;20042;-82
2023/04/28 06:08:36;;;;;;;18.70;11.18;;;7.60;99.90;;;;;;4976722;28;20491;-80
2023/04/28 06:11:02;;;;;;;20.77;11.15;;;7.60;99.90;;;;;;4959590;28;20129;-79
2023/04/28 06:13:28;;;;;;;24.58;11.10;;;7.60;99.90;;;;;;4976799;28;20083;-80
2023/04/28 06:15:53;;;;;;;18.98;10.98;;;7.60;99.90;;;;;;4976619;28;20125;-79
2023/04/28 06:18:19;;;;;;;21.92;11.73;;;7.60;99.90;;;;;;4959061;28;20074;-81
2023/04/28 06:20:45;;;;;;;19.98;10.77;;;7.60;99.90;;;;;;4976757;28;20442;-80
2023/04/28 06:23:10;;;;;;;22.30;10.63;;;7.60;99.90;;;;;;4959582;28;20050;-78
2023/04/28 06:25:36;;;;;;;20.00;10.35;;;7.60;99.90;;;;;;4976743;28;20062;-80
2023/04/28 06:28:02;;;;;;;18.35;11.00;;;7.70;99.90;;;;;;4976590;28;20117;-81
2023/04/28 06:30:28;;;;;;;20.98;11.25;;;7.70;99.90;;;;;;4976280;28;20037;-81
2023/04/28 06:32:56;;;;;;;19.42;11.68;;;7.70;99.90;;;;;;4943051;28;20042;-81
2023/04/28 06:35:22;;;;;;;21.85;11.20;;;7.70;99.90;;;;;;4958978;28;20050;-80
2023/04/28 06:37:48;;;;;;;19.80;11.38;;;7.80;99.90;;;;;;4957747;28;20499;-81
2023/04/28 06:40:13;;;;;;;21.73;10.73;;;7.80;99.90;;;;;;4959141;28;20134;-81
2023/04/28 06:42:39;;;;;;;19.88;10.90;;;7.80;99.90;;;;;;4976733;28;20046;-80
2023/04/28 06:45:05;;;;;;;22.75;11.48;;;7.80;99.90;;;;;;4976033;28;20043;-81
2023/04/28 06:47:31;;;;;;;19.10;10.45;;;7.90;99.90;;;;;;4958651;28;20030;-80
2023/04/28 06:49:56;;;;;;;18.30;10.45;;;7.90;99.90;;;;;;4958966;28;20096;-80
2023/04/28 06:52:22;;;;;;;23.02;10.95;;;8.00;99.90;;;;;;4958872;28;20046;-80
2023/04/28 06:54:49;;;;;;;17.85;10.68;;;8.10;99.90;;;;;;4976142;28;20030;-79
2023/04/28 06:57:15;;;;;;;20.95;11.18;;;8.30;99.90;;;;;;4943079;28;20046;-81
2023/04/28 06:59:42;;;;;;;21.17;10.38;;;8.40;99.90;;;;;;4976056;28;20042;-80
2023/04/28 07:02:09;;;;;;;16.63;10.07;;;8.40;99.90;;;;;;4975629;28;20074;-80
2023/04/28 07:04:35;;;;;;;15.43;10.43;;;8.40;99.90;;;;;;4958388;28;20043;-80
2023/04/28 07:07:01;;;;;;;19.05;9.75;;;8.40;99.90;;;;;;4958803;28;20061;-81
2023/04/28 07:09:27;;;;;;;16.58;9.70;;;8.40;99.90;;;;;;4976001;28;20478;-78
2023/04/28 07:11:52;;;;;;;17.95;9.68;;;8.40;99.90;;;;;;4975494;28;20134;-81
2023/04/28 07:14:18;;;;;;;19.13;9.85;;;8.50;99.90;;;;;;4958310;28;20039;-80
2023/04/28 07:16:44;;;;;;;19.42;10.30;;;8.50;99.90;;;;;;4975626;28;20041;-80
2023/04/28 07:19:09;;;;;;;16.75;9.68;;;8.60;99.90;;;;;;4942050;28;20476;-80
2023/04/28 07:21:35;;;;;;;16.95;9.95;;;8.80;99.90;;;;;;4975958;28;20053;-79
2023/04/28 07:24:01;;;;;;;20.88;10.18;;;8.80;99.90;;;;;;4957866;28;20043;-81
2023/04/28 07:26:27;;;;;;;18.63;10.20;;;8.80;99.90;;;;;;4957903;28;20073;-80
2023/04/28 07:28:52;;;;;;;17.85;9.63;;;9.00;99.90;;;;;;4975307;28;20101;-79
2023/04/28 07:31:18;;;;;;;18.10;10.15;;;9.00;99.90;;;;;;4957695;28;20347;-80
2023/04/28 07:33:43;;;;;;;16.58;8.63;;;9.00;99.90;;;;;;4958440;28;20125;-80
2023/04/28 07:36:09;;;;;;;17.27;9.82;;;9.00;99.90;;;;;;4974994;28;20408;-81
2023/04/28 07:38:35;;;;;;;15.40;9.05;;;9.00;99.90;;;;;;4975041;28;20069;-78
2023/04/28 07:41:12;;;;;;;18.95;9.63;;;9.10;99.90;;;;;;4958065;28;20038;-81
2023/04/28 07:43:38;;;;;;;16.88;9.48;;;9.10;99.90;;;;;;4957515;28;20478;-82
2023/04/28 07:46:07;;;;;;;13.80;8.50;;;9.20;99.90;;;;;;4957607;28;20486;-81
2023/04/28 07:48:33;;;;;;;15.57;9.85;;;9.20;99.90;;;;;;4974765;28;20043;-79
2023/04/28 07:50:59;;;;;;;15.43;9.38;;;9.20;99.90;;;;;;4957236;28;20038;-80
2023/04/28 07:53:24;;;;;;;25.48;10.00;;;9.20;99.90;;;;;;4957998;28;20042;-79
2023/04/28 07:55:50;;;;;;;17.45;9.57;;;9.20;99.90;;;;;;4975070;28;20046;-78
2023/04/28 07:58:16;;;;;;;17.25;9.40;;;9.20;99.90;;;;;;4974818;28;20043;-80
2023/04/28 08:00:41;;;;;;;14.70;9.55;;;9.20;99.90;;;;;;4957243;28;20042;-81
2023/04/28 08:03:07;;;;;;;16.58;9.65;;;9.10;99.90;;;;;;4957320;28;20047;-79
2023/04/28 08:05:33;;;;;;;15.80;10.10;;;9.10;99.90;;;;;;4957004;28;20051;-79
2023/04/28 08:07:58;;;;;;;17.90;11.23;;;9.10;99.90;;;;;;4957400;28;20043;-80
2023/04/28 08:10:25;;;;;;;19.65;10.93;;;9.20;99.90;;;;;;4974639;28;20532;-80
2023/04/28 08:12:51;;;;;;;19.05;11.32;;;9.30;99.90;;;;;;4956953;28;20514;-81
2023/04/28 08:15:17;;;;;;;17.90;10.85;;;9.30;99.90;;;;;;4957700;28;20047;-79
2023/04/28 08:17:42;;;;;;;17.65;10.77;;;9.40;99.90;;;;;;4957483;28;20043;-78
2023/04/28 08:20:08;;;;;;;18.45;10.57;;;9.60;99.90;;;;;;4974297;28;20047;-80
2023/04/28 08:22:35;;;;;;;17.90;10.88;;;9.60;99.90;;;;;;4956920;28;20046;-79
2023/04/28 08:25:00;;;;;;;17.75;10.48;;;9.70;99.90;;;;;;4974509;28;20093;-79
2023/04/28 08:27:26;;;;;;;17.98;10.45;;;9.80;99.90;;;;;;4957386;28;20047;-79
2023/04/28 08:29:52;;;;;;;21.80;10.48;;;9.80;99.90;;;;;;4956619;28;20051;-80
2023/04/28 08:32:18;;;;;;;18.73;10.30;;;9.90;99.90;;;;;;4957045;28;20446;-81
2023/04/28 08:34:44;;;;;;;17.23;10.85;;;9.90;99.90;;;;;;4974411;28;20047;-80
2023/04/28 08:37:09;;;;;;;17.77;9.73;;;9.80;99.90;;;;;;4957243;28;20463;-80
2023/04/28 08:39:35;;;;;;;20.90;10.98;;;9.90;99.90;;;;;;4974643;28;20126;-76
2023/04/28 08:42:04;;;;;;;16.02;9.85;;;10.00;99.90;;;;;;4957046;28;20069;-79
2023/04/28 08:44:39;;;;;;;18.80;10.85;;;10.10;99.90;;;;;;4956836;28;20057;-80
2023/04/28 08:47:15;;;;;;;18.48;10.45;;;10.20;99.90;;;;;;4956665;28;20137;-79
2023/04/28 08:49:41;;;;;;;;;;;10.20;99.90;;;;;;4957007;28;20038;-79
2023/04/28 08:52:16;;;;;;;;;;;10.30;99.90;;;;;;4957532;28;19925;-79
2023/04/28 08:54:43;;;;;;;14.73;9.85;;;10.20;99.90;;;;;;4974045;28;19964;-79
2023/04/28 08:57:10;;;;;;;16.55;10.18;;;10.30;99.90;;;;;;4973712;28;20082;-79
2023/04/28 08:59:40;;;;;;;17.60;10.23;;;10.30;99.90;;;;;;4974624;28;20047;-79
2023/04/28 09:02:09;;;;;;;19.17;10.60;;;10.30;99.90;;;;;;4960500;28;20112;-78
2023/04/28 09:04:35;;;;;;;19.75;10.30;;;10.30;99.90;;;;;;4944324;28;20170;-79
2023/04/28 09:07:01;;;;;;;18.08;10.80;;;10.40;99.90;;;;;;4977799;28;20117;-79
2023/04/28 09:09:29;;;;;;;18.02;10.02;;;10.40;99.90;;;;;;4977535;28;20035;-79
2023/04/28 09:12:02;;;;;;;15.75;10.13;;;10.60;99.90;;;;;;4960024;28;20058;-79
2023/04/28 09:14:31;;;;;;;13.60;9.57;;;10.70;99.90;;;;;;4977774;28;20061;-79
2023/04/28 09:16:57;;;;;;;16.25;10.05;;;10.80;99.90;;;;;;4977357;28;20034;-79
2023/04/28 09:19:24;;;;;;;14.65;9.70;;;10.80;99.90;;;;;;4960655;28;20042;-79
2023/04/28 09:21:55;;;;;;;16.23;9.45;;;10.90;99.90;;;;;;4977531;28;20050;-80
2023/04/28 09:24:35;;;;;;;17.70;10.38;;;10.90;99.90;;;;;;4960292;28;20093;-79
2023/04/28 09:27:03;;;;;;;17.13;10.55;;;11.10;99.90;;;;;;4960307;28;20049;-79
2023/04/28 09:29:30;;;;;;;15.02;10.25;;;11.20;99.90;;;;;;4979444;28;20053;-78
2023/04/28 09:32:16;;;;;;;14.70;9.23;;;11.60;99.90;;;;;;4963981;28;20122;-80
2023/04/28 09:34:49;;;;;;;14.27;9.65;;;12.20;99.90;;;;;;4961495;28;20242;-79
2023/04/28 09:37:15;;;;;;;16.65;9.90;;;12.50;99.90;;;;;;4960646;28;20121;-79
2023/04/28 09:39:45;;;;;;;17.02;9.35;;;12.70;99.90;;;;;;4960321;28;20050;-78
2023/04/28 09:42:33;;;;;;;14.15;9.05;;;12.60;99.90;;;;;;4977752;28;20509;-79
2023/04/28 09:45:01;;;;;;;14.88;9.30;;;12.50;99.90;;;;;;4946729;28;20046;-78
2023/04/28 09:47:27;;;;;;;13.88;9.75;;;12.40;99.90;;;;;;4961360;28;20098;-78
2023/04/28 09:49:57;;;;;;;14.25;9.38;;;12.40;99.90;;;;;;4960336;28;20403;-79
2023/04/28 09:52:23;;;;;;;15.05;9.65;;;12.40;99.90;;;;;;4959827;28;20058;-79
2023/04/28 09:54:53;;;;;;;12.95;9.25;;;12.50;99.90;;;;;;4976799;28;20050;-79
2023/04/28 09:57:21;;;;;;;15.82;9.32;;;12.60;99.90;;;;;;4976827;28;20043;-79
2023/04/28 09:59:51;;;;;;;18.60;9.88;;;12.70;99.90;;;;;;4977507;28;20046;-79
2023/04/28 10:02:19;;;;;;;16.05;8.77;;;13.00;99.90;;;;;;4959956;28;20043;-78
2023/04/28 10:04:46;;;;;;;14.63;9.05;;;13.30;99.90;;;;;;4976716;28;20077;-78
2023/04/28 10:07:15;;;;;;;14.32;9.35;;;13.50;99.90;;;;;;4959244;28;20058;-79
2023/04/28 10:09:46;;;;;;;15.30;9.55;;;13.60;99.90;;;;;;4976863;28;20062;-79
2023/04/28 10:12:13;;;;;;;16.15;9.05;;;13.60;99.90;;;;;;4976164;28;20050;-79
2023/04/28 10:14:41;;;;;;;14.73;9.30;;;13.70;99.90;;;;;;4959790;28;20082;-79
2023/04/28 10:17:07;;;;;;;14.18;9.10;;;13.70;99.90;;;;;;4959497;28;20055;-78
2023/04/28 10:19:33;;;;;;;16.58;9.48;;;13.80;99.90;;;;;;4959311;28;20046;-79
2023/04/28 10:22:23;;;;;;;12.20;8.93;;;13.80;99.90;;;;;;4959279;28;20043;-78
2023/04/28 10:25:20;;;;;;;16.52;9.55;;;13.80;99.90;;;;;;4959972;28;20145;-79
2023/04/28 10:27:47;;;;;;;13.85;8.73;;;13.90;99.90;;;;;;4943720;28;20046;-78
2023/04/28 10:30:13;;;;;;;19.35;9.07;;;14.10;99.90;;;;;;4959107;28;20445;-78
2023/04/28 10:32:39;;;;;;;13.70;8.77;;;14.20;99.90;;;;;;4976680;28;20074;-78
2023/04/28 10:35:36;;;;;;;13.13;9.18;;;14.30;99.90;;;;;;4976250;28;20038;-78
2023/04/28 10:38:07;;;;;;;13.85;9.18;;;14.30;99.90;;;;;;4937655;28;20061;-79
2023/04/28 10:40:45;;;;;;;12.05;8.40;;;14.40;99.90;;;;;;4976234;28;20077;-78
2023/04/28 10:43:38;;;;;;;15.70;8.65;;;14.50;99.90;;;;;;4959155;28;20058;-79
2023/04/28 10:46:08;;;;;;;12.57;8.43;;;14.50;99.90;;;;;;4958522;28;20053;-78
2023/04/28 10:48:49;;;;;;;12.00;8.13;;;14.60;99.90;;;;;;4958766;28;20416;-77
2023/04/28 10:51:15;;;;;;;14.43;8.02;;;14.70;99.90;;;;;;4958560;28;20469;-78
2023/04/28 10:53:44;;;;;;;11.07;7.57;;;14.80;99.90;;;;;;4942913;28;20126;-79
2023/04/28 10:56:20;;;;;;;12.85;8.68;;;14.80;99.90;;;;;;4943359;28;20459;-79
2023/04/28 10:59:26;;;;;;;14.00;8.07;;;14.80;99.90;;;;;;4959059;28;20050;-78
2023/04/28 11:01:51;;;;;;;9.70;7.82;;;14.60;99.90;;;;;;4958614;28;20514;-78
2023/04/28 11:04:17;;;;;;;11.93;8.02;;;14.50;99.90;;;;;;4958649;28;20082;-79
2023/04/28 11:07:06;;;;;;;13.23;7.72;;;14.40;99.90;;;;;;4974724;28;20129;-78
2023/04/28 11:09:32;;;;;;;14.68;8.00;;;14.30;99.90;;;;;;4958404;28;20085;-79
2023/04/28 11:12:09;;;;;;;14.52;8.73;;;14.30;99.90;;;;;;4942428;28;20039;-79
2023/04/28 11:14:41;;;;;;;12.70;8.40;;;14.30;99.90;;;;;;4958768;28;20105;-78
2023/04/28 11:17:10;;;;;;;13.88;8.65;;;14.20;99.90;;;;;;4975786;28;20114;-78
2023/04/28 11:19:41;;;;;;;14.18;8.77;;;14.20;99.90;;;;;;4958411;28;20133;-78
2023/04/28 11:22:14;;;;;;;15.35;9.15;;;14.20;99.90;;;;;;4957664;28;20407;-77
2023/04/28 11:24:40;;;;;;;13.15;9.57;;;14.10;99.90;;;;;;4975253;28;20066;-79
2023/04/28 11:27:06;;;;;;;13.98;8.80;;;14.00;99.90;;;;;;4957711;28;20141;-80
2023/04/28 11:29:35;;;;;;;11.93;8.63;;;14.00;99.90;;;;;;4958080;28;20125;-79
2023/04/28 11:32:02;;;;;;;14.63;9.35;;;13.90;99.90;;;;;;4957676;28;20094;-79
2023/04/28 11:34:28;;;;;;;10.85;8.63;;;13.80;99.90;;;;;;4957806;28;20263;-79
2023/04/28 11:36:54;;;;;;;14.73;9.35;;;13.80;99.90;;;;;;4975309;28;20126;-78
2023/04/28 11:39:30;;;;;;;15.68;10.20;;;13.70;99.90;;;;;;4974959;28;20114;-79
2023/04/28 11:41:57;;;;;;;15.88;10.55;;;13.70;99.90;;;;;;4957788;28;20501;-79
2023/04/28 11:44:25;;;;;;;18.50;12.20;;;13.60;99.90;;;;;;4957502;28;20049;-78
2023/04/28 11:46:59;;;;;;;18.13;11.57;;;13.60;99.90;;;;;;4958455;28;20167;-79
2023/04/28 11:49:27;;;;;;;19.33;12.57;;;13.50;99.90;;;;;;4958133;28;20043;-78
2023/04/28 11:51:54;;;;;;;18.95;12.63;;;13.50;99.90;;;;;;4957469;28;20047;-77
2023/04/28 11:54:25;;;;;;;24.08;14.02;;;13.40;99.90;;;;;;4941648;28;20465;-79
2023/04/28 11:56:52;;;;;;;21.45;13.25;;;13.40;99.90;;;;;;4974913;28;20047;-78
2023/04/28 11:59:23;;;;;;;23.58;14.57;;;13.30;99.90;;;;;;4974928;28;20050;-77
2023/04/28 12:01:54;;;;;;;23.02;14.35;;;13.20;99.90;;;;;;4974370;28;20165;-79
2023/04/28 12:04:39;;;;;;;21.92;14.40;;;13.20;99.90;;;;;;4957549;28;20160;-78
2023/04/28 12:07:14;;;;;;;23.35;14.80;;;13.10;99.90;;;;;;4974379;28;20422;-81
2023/04/28 12:09:44;;;;;;;21.42;14.35;;;13.20;99.90;;;;;;4974600;28;20066;-78
2023/04/28 12:12:14;;;;;;;24.50;15.63;;;13.20;99.90;;;;;;4957587;28;20047;-79
2023/04/28 12:14:58;;;;;;;25.55;15.90;;;13.30;99.90;;;;;;4974573;28;20086;-79
2023/04/28 12:17:29;;;;;;;22.90;14.15;;;13.30;99.90;;;;;;4957012;28;20061;-79
2023/04/28 12:19:56;;;;;;;24.20;15.30;;;13.30;99.90;;;;;;4957001;28;20112;-81
2023/04/28 12:22:23;;;;;;;21.30;14.25;;;13.30;99.90;;;;;;4956884;28;20086;-79
2023/04/28 12:25:06;;;;;;;27.95;15.80;;;13.30;99.90;;;;;;4956787;28;20054;-79
2023/04/28 12:27:33;;;;;;;27.63;16.77;;;13.20;99.90;;;;;;4956856;28;20042;-77
2023/04/28 12:29:59;;;;;;;31.33;17.92;;;13.10;99.90;;;;;;4940793;28;20042;-78
2023/04/28 12:32:42;;;;;;;25.45;17.77;;;13.10;99.90;;;;;;4957117;28;20041;-80
2023/04/28 12:35:08;;;;;;;29.08;19.05;;;13.00;99.90;;;;;;4973444;28;20034;-79
2023/04/28 12:37:34;;;;;;;34.63;20.63;;;13.00;99.90;;;;;;4958255;28;20420;-78
2023/04/28 12:40:01;;;;;;;36.53;21.88;;;12.90;99.90;;;;;;4974823;28;20069;-79
2023/04/28 12:42:28;;;;;;;38.35;22.88;;;12.90;99.90;;;;;;4974120;28;20114;-78
2023/04/28 12:44:53;;;;;;;40.42;25.35;;;12.80;99.90;;;;;;4974742;28;20208;-80
2023/04/28 12:47:20;;;;;;;38.95;25.17;;;12.80;99.90;;;;;;4974725;28;20054;-77
2023/04/28 12:49:47;;;;;;;42.38;26.25;;;12.70;99.90;;;;;;4974675;28;20144;-79
2023/04/28 12:52:13;;;;;;;47.85;30.45;;;12.70;99.90;;;;;;4940985;28;20046;-78
2023/04/28 12:54:45;;;;;;;47.05;31.65;;;12.60;99.90;;;;;;4974169;28;20039;-80
2023/04/28 12:57:12;;;;;;;53.90;33.92;;;12.70;99.90;;;;;;4974925;28;20038;-79
2023/04/28 12:59:38;;;;;;;57.78;37.08;;;12.70;99.90;;;;;;4957155;28;20153;-79
2023/04/28 13:02:04;;;;;;;65.63;37.80;;;12.80;99.90;;;;;;4974225;28;20073;-79
2023/04/28 13:04:30;;;;;;;66.10;38.65;;;12.80;99.90;;;;;;4974839;28;20050;-79
2023/04/28 13:07:00;;;;;;;51.75;34.63;;;12.80;99.90;;;;;;4957107;28;20043;-79
2023/04/28 13:09:26;;;;;;;55.55;35.65;;;12.80;99.90;;;;;;4957146;28;20047;-79
2023/04/28 13:11:55;;;;;;;57.03;36.55;;;12.80;99.90;;;;;;4941277;28;20387;-79
2023/04/28 13:14:21;;;;;;;55.70;36.97;;;12.90;99.90;;;;;;4974471;28;20062;-80
2023/04/28 13:16:47;;;;;;;54.92;36.90;;;12.90;99.90;;;;;;4957054;28;20479;-81
2023/04/28 13:19:13;;;;;;;57.78;36.63;;;12.90;99.90;;;;;;4974708;28;20093;-80
2023/04/28 13:21:42;;;;;;;54.47;36.08;;;12.90;99.90;;;;;;4957095;28;20375;-80
2023/04/28 13:24:09;;;;;;;53.83;35.80;;;13.00;99.90;;;;;;4958091;28;20379;-78
2023/04/28 13:26:36;;;;;;;52.92;34.80;;;13.00;99.90;;;;;;4957495;28;20495;-79
2023/04/28 13:29:03;;;;;;;47.50;33.05;;;13.00;99.90;;;;;;4974379;28;20402;-81
2023/04/28 13:31:29;;;;;;;51.60;35.75;;;12.90;99.90;;;;;;4957122;28;20087;-81
2023/04/28 13:33:55;;;;;;;55.05;36.50;;;12.90;99.90;;;;;;4974504;28;20046;-78
2023/04/28 13:36:22;;;;;;;51.67;34.08;;;12.90;99.90;;;;;;4974608;28;20352;-80
2023/04/28 13:38:48;;;;;;;53.15;35.42;;;12.80;99.90;;;;;;4974567;28;20047;-79
2023/04/28 13:41:15;;;;;;;51.45;35.25;;;12.80;99.90;;;;;;4974427;28;20057;-79
2023/04/28 13:43:40;;;;;;;62.80;38.45;;;12.80;99.90;;;;;;4974288;28;20198;-79
2023/04/28 13:46:07;;;;;;;60.75;37.45;;;12.70;99.90;;;;;;4975063;28;20163;-79
2023/04/28 13:48:38;;;;;;;56.88;38.25;;;12.70;99.90;;;;;;4976291;28;20121;-77
2023/04/28 13:51:04;;;;;;;55.85;37.42;;;12.70;99.90;;;;;;4978989;28;20141;-80
2023/04/28 13:53:30;;;;;;;57.88;37.08;;;12.70;99.90;;;;;;4976894;28;20094;-78
2023/04/28 13:55:57;;;;;;;59.97;38.45;;;12.70;99.90;;;;;;4976883;28;20053;-78
2023/04/28 13:58:26;;;;;;;62.28;38.13;;;12.80;99.90;;;;;;4976927;28;20386;-78
2023/04/28 14:00:53;;;;;;;60.13;38.13;;;12.80;99.90;;;;;;4959674;28;20111;-78
2023/04/28 14:03:20;;;;;;;55.63;36.42;;;12.80;99.90;;;;;;4977108;28;20046;-77
2023/04/28 14:05:47;;;;;;;57.08;36.05;;;12.80;99.90;;;;;;4975765;28;20054;-78
2023/04/28 14:08:14;;;;;;;57.70;36.03;;;12.80;99.90;;;;;;4977476;28;20045;-77
2023/04/28 14:10:39;;;;;;;53.17;35.10;;;12.80;99.90;;;;;;4959897;28;20058;-79
2023/04/28 14:13:05;;;;;;;53.67;35.33;;;12.80;99.90;;;;;;4976297;28;20035;-77
2023/04/28 14:15:31;;;;;;;55.25;35.28;;;12.80;99.90;;;;;;4977238;28;20491;-78
2023/04/28 14:17:57;;;;;;;56.30;35.15;;;12.80;99.90;;;;;;4977243;28;20046;-78
2023/04/28 14:20:23;;;;;;;54.92;34.85;;;12.80;99.90;;;;;;4975939;28;20045;-80
2023/04/28 14:22:48;;;;;;;58.28;35.35;;;12.80;99.90;;;;;;4977617;28;20041;-78
2023/04/28 14:25:16;;;;;;;60.00;34.92;;;12.80;99.90;;;;;;4977309;28;20102;-78
2023/04/28 14:27:42;;;;;;;55.72;34.60;;;12.80;99.90;;;;;;4975931;28;20065;-79
2023/04/28 14:30:08;;;;;;;57.28;35.80;;;12.80;99.90;;;;;;4977372;28;20129;-80
2023/04/28 14:32:35;;;;;;;54.97;33.45;;;12.70;99.90;;;;;;4975964;28;20085;-79
2023/04/28 14:35:04;;;;;;;48.92;29.95;;;12.70;99.90;;;;;;4975742;28;20045;-78
2023/04/28 14:37:30;;;;;;;49.42;30.60;;;12.70;99.90;;;;;;4975485;28;20094;-79
2023/04/28 14:39:56;;;;;;;54.67;31.48;;;12.70;99.90;;;;;;4977376;28;20050;-78
2023/04/28 14:42:28;;;;;;;45.80;27.35;;;12.70;99.90;;;;;;4975604;28;20046;-80
2023/04/28 14:44:54;;;;;;;52.08;28.02;;;12.80;99.90;;;;;;4976786;28;20066;-78
2023/04/28 14:47:19;;;;;;;44.85;27.17;;;12.80;99.90;;;;;;4976689;28;20504;-79
2023/04/28 14:49:47;;;;;;;41.42;23.10;;;12.80;99.90;;;;;;4975502;28;20065;-79
2023/04/28 14:52:13;;;;;;;39.63;21.98;;;12.80;99.90;;;;;;4976752;28;20042;-80
2023/04/28 14:54:38;;;;;;;41.78;22.60;;;12.80;99.90;;;;;;4976908;28;20050;-78
2023/04/28 14:57:04;;;;;;;40.88;21.20;;;12.80;99.90;;;;;;4974651;28;20050;-78
2023/04/28 14:59:30;;;;;;;42.40;21.02;;;12.80;99.90;;;;;;4975070;28;20074;-80
2023/04/28 15:01:56;;;;;;;47.80;22.40;;;12.80;99.90;;;;;;4976412;28;20035;-78
2023/04/28 15:04:28;;;;;;;37.53;21.23;;;12.70;99.90;;;;;;4967873;28;20051;-81
2023/04/28 15:06:54;;;;;;;26.67;13.70;;;12.70;99.90;;;;;;4962295;28;20049;-77
2023/04/28 15:09:20;;;;;;;31.63;14.75;;;12.70;99.90;;;;;;4961865;28;20126;-78
2023/04/28 15:11:46;;;;;;;43.03;21.77;;;12.60;99.90;;;;;;4966062;28;20078;-75
2023/04/28 15:14:15;;;;;;;41.38;20.80;;;12.60;99.90;;;;;;4992768;28;20117;-74
2023/04/28 15:16:41;;;;;;;42.67;22.33;;;12.60;99.90;;;;;;4987406;28;20534;-79
2023/04/28 15:19:07;;;;;;;44.75;20.17;;;12.60;99.90;;;;;;4960301;28;20073;-78
2023/04/28 15:21:33;;;;;;;43.10;19.23;;;12.50;99.90;;;;;;4976961;28;20042;-78
2023/04/28 15:23:59;;;;;;;46.50;22.75;;;12.50;99.90;;;;;;4959017;28;20043;-79
2023/04/28 15:26:26;;;;;;;52.28;24.27;;;12.50;99.90;;;;;;4958522;28;20093;-80
2023/04/28 15:28:52;;;;;;;50.08;25.05;;;12.50;99.90;;;;;;4976151;28;20391;-78
2023/04/28 15:31:18;;;;;;;51.47;24.35;;;12.50;99.90;;;;;;4942724;28;20050;-79
2023/04/28 15:33:44;;;;;;;55.40;25.80;;;12.50;99.90;;;;;;4959174;28;20038;-78
2023/04/28 15:36:11;;;;;;;50.75;24.45;;;12.50;99.90;;;;;;4976117;28;20360;-78
2023/04/28 15:38:38;;;;;;;52.75;25.02;;;12.50;99.90;;;;;;4975746;28;20043;-82